Pagrindinis puslapis
METAR-TAF:

METAR-TAF

Oro uostai :

Enfidha-Hammamet

Hamametas, Tunisas

platuma: 36-04-34N, ilguma: 10-26-19E, Aukštis: 6 m

Dabartinis oras

Ataskaita buvo paskelbta 35 minutes, ne 07:00 UTC
Vėjas 4 kt iš Pietvakarių
Temperatūra 6°C
Drėgmė 93%
Slėgis 1023 hPa
Matomumas: 6000 m
Mažai debesys ne aukštis 2600 ft

METAR: DTNH 250700Z 23004KT 6000 FEW026 06/05 Q1023

Laikas: 08:35 (07:35 UTC)

Prognozė

Ataskaita buvo paskelbta 2 valandos ir 35 minutes, ne 05:00 UTC
Prognozė galioja nuo 25 metu 06 UTC su 26 metu 06 UTC
Vėjas 2 kt nuo kintamojo kryptimis
Matomumas: 6000 m
Mažai debesys ne aukštis 1600 ft
Tikimybė 40% :
Laikinai
nuo 25 metu 06 UTC su 25 metu 09 UTC
Matomumas: 2000 m
Su prošvaistėmis ne aukštis 1000 ft
rūkana
Tikimybė 30% :
Laikinai
nuo 25 metu 06 UTC su 25 metu 08 UTC
Matomumas: 0800 m
rūkas
Tikimybė 30% :
Laikinai
nuo 25 metu 22 UTC su 26 metu 06 UTC
Matomumas: 3000 m
rūkana

TAF: DTNH 250500Z 2506/2606 VRB02KT 6000 FEW016 PROB40 TEMPO 2506/2509 2000 BR BKN010 PROB30 TEMPO 2506/2508 0800 FG PROB30 TEMPO 2522/2606 3000 BR

Orai ataskaitas ir orų prognozės (METAR, TAF).

turimą stotys yra geltonos ir raudonos taškus žemėlapyje.

Perkelti pele per norėdami pamatyti stoties vardą.

Tada spustelėkite, norėdami matyti oro stebėjimo ir prognozės.

Norėdami pakeisti žemėlapį: spustelėkite ant žalios mygtukų su juodo kryžiaus žemyn,; žalią mygtuką su brūkšneliu, jei norite nutolinti; arba žalių rodyklių gretimoms žemėlapius.


METAR-TAF: